Time;durP1;ratioP1;P1;durP2;ratioP2;P2;SDS_P1;SDS_P2;PMS_P1;PMS_P2;Temp;Humidity;BMP_temperature;BMP_pressure;BME280_temperature;BME280_humidity;BME280_pressure;Samples;Min_cycle;Max_cycle;Signal;HPM_P1;HPM_P2
2021/06/26 00:00:02;;;;;;;;;;;;;;;;;;4959538;28;19918;-77
2021/06/26 00:02:28;;;;;;;;;;;;;;;;;;4955502;28;20289;-77
2021/06/26 00:04:54;;;;;;;;;;;;;;;;;;4963216;28;19913;-77
2021/06/26 00:07:20;;;;;;;;;;;;;;;;;;4965749;28;19956;-77
2021/06/26 00:09:46;;;;;;;;;;;;;;;;;;4967284;28;19964;-77
2021/06/26 00:12:12;;;;;;;;;;;;;;;;;;4966253;28;19910;-77
2021/06/26 00:14:38;;;;;;;;;;;;;;;;;;4963821;28;20321;-77
2021/06/26 00:17:04;;;;;;;;;;;;;;;;;;4966879;28;20319;-76
2021/06/26 00:19:30;;;;;;;;;;;;;;;;;;4974664;28;19917;-77
2021/06/26 00:21:56;;;;;;;;;;;;;;;;;;4961615;28;20330;-77
2021/06/26 00:24:21;;;;;;;;;;;;;;;;;;4965593;28;19914;-77
2021/06/26 00:26:49;;;;;;;;;;;;;;;;;;4964455;28;20429;-76
2021/06/26 00:29:15;;;;;;;;;;;;;;;;;;4959478;28;20279;-77
2021/06/26 00:31:41;;;;;;;;;;;;;;;;;;4970462;28;19969;-76
2021/06/26 00:34:07;;;;;;;;;;;;;;;;;;4970622;28;20055;-77
2021/06/26 00:36:33;;;;;;;;;;;;;;;;;;4963069;28;19911;-77
2021/06/26 00:38:59;;;;;;;;;;;;;;;;;;4968642;28;19964;-77
2021/06/26 00:41:25;;;;;;;;;;;;;;;;;;4969569;28;19996;-76
2021/06/26 00:43:51;;;;;;;;;;;;;;;;;;4958945;28;19924;-77
2021/06/26 00:46:16;;;;;;;;;;;;;;;;;;4963421;28;19937;-77
2021/06/26 00:48:42;;;;;;;;;;;;;;;;;;4965582;28;19945;-77
2021/06/26 00:51:08;;;;;;;;;;;;;;;;;;4969291;28;19925;-77
2021/06/26 00:53:34;;;;;;;;;;;;;;;;;;4969859;28;19914;-78
2021/06/26 00:56:00;;;;;;;;;;;;;;;;;;4967791;28;19914;-77
2021/06/26 00:58:27;;;;;;;;;;;;;;;;;;4962611;28;19913;-77
2021/06/26 01:00:53;;;;;;;;;;;;;;;;;;4960554;28;20407;-76
2021/06/26 01:03:18;;;;;;;;;;;;;;;;;;4966918;28;19914;-77
2021/06/26 01:05:44;;;;;;;;;;;;;;;;;;4970332;28;20542;-77
2021/06/26 01:08:10;;;;;;;;;;;;;;;;;;4977522;28;20008;-76
2021/06/26 01:10:36;;;;;;;;;;;;;;;;;;4965276;28;20498;-76
2021/06/26 01:13:02;;;;;;;;;;;;;;;;;;4964756;28;19921;-76
2021/06/26 01:15:28;;;;;;;;;;;;;;;;;;4966901;28;19945;-76
2021/06/26 01:17:54;;;;;;;;;;;;;;;;;;4969869;28;19909;-76
2021/06/26 01:20:20;;;;;;;;;;;;;;;;;;4967285;28;19910;-76
2021/06/26 01:23:04;;;;;;;;;;;;;;;;;;4969779;28;20009;-76
2021/06/26 01:25:30;;;;;;;;;;;;;;;;;;4959265;28;20036;-77
2021/06/26 01:27:59;;;;;;;;;;;;;;;;;;4963842;28;19910;-76
2021/06/26 01:30:25;;;;;;;;;;;;;;;;;;4988409;28;19918;-76
2021/06/26 01:32:51;;;;;;;;;;;;;;;;;;4981174;28;19910;-76
2021/06/26 01:35:17;;;;;;;;;;;;;;;;;;4972113;28;19920;-75
2021/06/26 01:37:42;;;;;;;;;;;;;;;;;;4972102;28;20582;-76
2021/06/26 01:40:08;;;;;;;;;;;;;;;;;;4966368;28;19914;-76
2021/06/26 01:42:34;;;;;;;;;;;;;;;;;;4964850;28;20016;-75
2021/06/26 01:45:00;;;;;;;;;;;;;;;;;;4972416;28;19921;-76
2021/06/26 01:47:26;;;;;;;;;;;;;;;;;;4972600;28;19918;-76
2021/06/26 01:49:53;;;;;;;;;;;;;;;;;;4972894;28;20004;-75
2021/06/26 01:52:19;;;;;;;;;;;;;;;;;;4982862;28;20012;-76
2021/06/26 01:54:45;;;;;;;;;;;;;;;;;;4967800;28;20009;-75
2021/06/26 01:57:11;;;;;;;;;;;;;;;;;;4965674;28;19910;-75
2021/06/26 01:59:37;;;;;;;;;;;;;;;;;;4972931;28;19910;-75
2021/06/26 02:02:06;;;;;;;;;;;;;;;;;;4972294;28;19910;-75
2021/06/26 02:04:32;;;;;;;;;;;;;;;;;;4968480;28;20350;-75
2021/06/26 02:06:58;;;;;;;;;;;;;;;;;;4972620;28;20013;-76
2021/06/26 02:09:23;;;;;;;;;;;;;;;;;;4972713;28;19953;-76
2021/06/26 02:11:49;;;;;;;;;;;;;;;;;;4964423;28;19925;-75
2021/06/26 02:14:15;;;;;;;;;;;;;;;;;;4971019;28;19922;-75
2021/06/26 02:16:41;;;;;;;;;;;;;;;;;;4972528;28;19960;-75
2021/06/26 02:19:07;;;;;;;;;;;;;;;;;;4965766;28;19921;-76
2021/06/26 02:21:33;;;;;;;;;;;;;;;;;;4971131;28;20322;-76
2021/06/26 02:24:02;;;;;;;;;;;;;;;;;;4959688;28;20017;-75
2021/06/26 02:26:28;;;;;;;;;;;;;;;;;;4984021;28;19913;-76
2021/06/26 02:28:53;;;;;;;;;;;;;;;;;;4978809;28;20263;-75
2021/06/26 02:31:19;;;;;;;;;;;;;;;;;;4963767;28;19970;-76
2021/06/26 02:33:45;;;;;;;;;;;;;;;;;;4981741;28;20289;-76
2021/06/26 02:36:11;;;;;;;;;;;;;;;;;;4972408;28;19906;-75
2021/06/26 02:38:37;;;;;;;;;;;;;;;;;;4970034;28;19910;-76
2021/06/26 02:41:03;;;;;;;;;;;;;;;;;;4967673;28;19997;-76
2021/06/26 02:43:29;;;;;;;;;;;;;;;;;;4959008;28;19984;-77
2021/06/26 02:45:55;;;;;;;;;;;;;;;;;;4970723;28;19921;-77
2021/06/26 02:48:20;;;;;;;;;;;;;;;;;;4972543;28;20351;-77
2021/06/26 02:50:46;;;;;;;;;;;;;;;;;;4972621;28;19910;-76
2021/06/26 02:53:12;;;;;;;;;;;;;;;;;;4971023;28;19917;-75
2021/06/26 02:55:38;;;;;;;;;;;;;;;;;;4977576;28;19910;-75
2021/06/26 02:58:04;;;;;;;;;;;;;;;;;;4970773;28;20438;-75
2021/06/26 03:00:30;;;;;;;;;;;;;;;;;;4965344;28;19913;-74
2021/06/26 03:02:56;;;;;;;;;;;;;;;;;;4967931;28;20640;-75
2021/06/26 03:05:22;;;;;;;;;;;;;;;;;;4971847;28;19910;-75
2021/06/26 03:07:48;;;;;;;;;;;;;;;;;;4973825;28;19910;-75
2021/06/26 03:10:13;;;;;;;;;;;;;;;;;;4966434;28;19910;-75
2021/06/26 03:12:39;;;;;;;;;;;;;;;;;;4965810;28;20425;-75
2021/06/26 03:15:05;;;;;;;;;;;;;;;;;;4962709;28;19947;-75
2021/06/26 03:17:31;;;;;;;;;;;;;;;;;;4972367;28;19949;-75
2021/06/26 03:19:57;;;;;;;;;;;;;;;;;;4970600;28;20361;-75
2021/06/26 03:22:23;;;;;;;;;;;;;;;;;;4980182;28;19957;-75
2021/06/26 03:24:52;;;;;;;;;;;;;;;;;;4963042;28;19917;-75
2021/06/26 03:27:18;;;;;;;;;;;;;;;;;;4973417;28;20269;-75
2021/06/26 03:29:43;;;;;;;;;;;;;;;;;;4970891;28;19910;-75
2021/06/26 03:32:11;;;;;;;;;;;;;;;;;;4972088;28;20550;-75
2021/06/26 03:34:37;;;;;;;;;;;;;;;;;;4979705;28;19917;-75
2021/06/26 03:37:02;;;;;;;;;;;;;;;;;;4970425;28;19910;-75
2021/06/26 03:39:28;;;;;;;;;;;;;;;;;;4973328;28;19910;-75
2021/06/26 03:41:54;;;;;;;;;;;;;;;;;;4965888;28;20428;-76
2021/06/26 03:44:20;;;;;;;;;;;;;;;;;;4973210;28;19965;-75
2021/06/26 03:46:46;;;;;;;;;;;;;;;;;;4960523;28;19907;-76
2021/06/26 03:49:12;;;;;;;;;;;;;;;;;;4968098;28;19942;-75
2021/06/26 03:51:39;;;;;;;;;;;;;;;;;;4967257;28;20421;-75
2021/06/26 03:54:05;;;;;;;;;;;;;;;;;;4957227;28;20794;-76
2021/06/26 03:56:38;;;;;;;;;;;;;;;;;;4971370;28;19921;-75
2021/06/26 03:59:04;;;;;;;;;;;;;;;;;;4978639;28;20319;-76
2021/06/26 04:01:29;;;;;;;;;;;;;;;;;;4971600;28;19910;-76
2021/06/26 04:03:55;;;;;;;;;;;;;;;;;;4965527;28;20291;-75
2021/06/26 04:06:21;;;;;;;;;;;;;;;;;;4975742;28;19914;-75
2021/06/26 04:08:47;;;;;;;;;;;;;;;;;;4966145;28;19933;-76
2021/06/26 04:11:13;;;;;;;;;;;;;;;;;;4973046;28;19916;-76
2021/06/26 04:13:39;;;;;;;;;;;;;;;;;;4973223;28;19918;-76
2021/06/26 04:16:05;;;;;;;;;;;;;;;;;;4974546;28;20009;-76
2021/06/26 04:18:31;;;;;;;;;;;;;;;;;;4979274;28;19910;-75
2021/06/26 04:20:57;;;;;;;;;;;;;;;;;;4974557;28;19910;-76
2021/06/26 04:23:23;;;;;;;;;;;;;;;;;;4979212;28;20559;-76
2021/06/26 04:25:50;;;;;;;;;;;;;;;;;;4974468;28;19910;-76
2021/06/26 04:28:16;;;;;;;;;;;;;;;;;;4972292;28;20334;-76
2021/06/26 04:30:42;;;;;;;;;;;;;;;;;;4975534;28;19914;-76
2021/06/26 04:33:09;;;;;;;;;;;;;;;;;;4965596;28;20271;-76
2021/06/26 04:35:35;;;;;;;;;;;;;;;;;;4974891;28;19944;-76
2021/06/26 04:38:00;;;;;;;;;;;;;;;;;;4983592;28;19953;-76
2021/06/26 04:40:26;;;;;;;;;;;;;;;;;;4970890;28;19937;-75
2021/06/26 04:42:53;;;;;;;;;;;;;;;;;;4973114;28;19922;-75
2021/06/26 04:45:19;;;;;;;;;;;;;;;;;;4964663;28;20313;-76
2021/06/26 04:47:44;;;;;;;;;;;;;;;;;;4970215;28;19911;-76
2021/06/26 04:50:10;;;;;;;;;;;;;;;;;;4973584;28;19997;-76
2021/06/26 04:52:36;;;;;;;;;;;;;;;;;;4964268;28;20279;-76
2021/06/26 04:55:02;;;;;;;;;;;;;;;;;;4962697;28;19988;-76
2021/06/26 04:57:29;;;;;;;;;;;;;;;;;;4972088;28;19910;-76
2021/06/26 04:59:55;;;;;;;;;;;;;;;;;;4968706;28;20374;-76
2021/06/26 05:02:21;;;;;;;;;;;;;;;;;;4972008;28;19917;-76
2021/06/26 05:04:47;;;;;;;;;;;;;;;;;;4964398;28;20314;-77
2021/06/26 05:07:13;;;;;;;;;;;;;;;;;;4972806;28;19914;-76
2021/06/26 05:09:39;;;;;;;;;;;;;;;;;;4967221;28;20102;-77
2021/06/26 05:12:05;;;;;;;;;;;;;;;;;;4972940;28;19918;-77
2021/06/26 05:14:30;;;;;;;;;;;;;;;;;;4968830;28;19965;-77
2021/06/26 05:16:56;;;;;;;;;;;;;;;;;;4971249;28;20281;-77
2021/06/26 05:19:22;;;;;;;;;;;;;;;;;;4962357;28;19933;-77
2021/06/26 05:21:48;;;;;;;;;;;;;;;;;;4960269;28;19917;-76
2021/06/26 05:24:14;;;;;;;;;;;;;;;;;;4967549;28;19940;-77
2021/06/26 05:26:40;;;;;;;;;;;;;;;;;;4967136;28;19910;-77
2021/06/26 05:29:06;;;;;;;;;;;;;;;;;;4965510;28;20370;-76
2021/06/26 05:31:32;;;;;;;;;;;;;;;;;;4969153;28;19914;-77
2021/06/26 05:33:58;;;;;;;;;;;;;;;;;;4971069;28;20024;-77
2021/06/26 05:36:24;;;;;;;;;;;;;;;;;;4972644;28;19921;-76
2021/06/26 05:38:53;;;;;;;;;;;;;;;;;;4963381;28;19910;-77
2021/06/26 05:41:18;;;;;;;;;;;;;;;;;;4970490;28;19910;-77
2021/06/26 05:43:44;;;;;;;;;;;;;;;;;;4967814;28;19925;-77
2021/06/26 05:46:11;;;;;;;;;;;;;;;;;;4964172;28;20358;-77
2021/06/26 05:48:37;;;;;;;;;;;;;;;;;;4964878;28;19914;-78
2021/06/26 05:51:03;;;;;;;;;;;;;;;;;;4968353;28;20534;-77
2021/06/26 05:53:29;;;;;;;;;;;;;;;;;;4980198;28;19956;-78
2021/06/26 05:55:58;;;;;;;;;;;;;;;;;;4969554;28;19918;-76
2021/06/26 05:58:24;;;;;;;;;;;;;;;;;;4966113;28;19914;-76
2021/06/26 06:00:50;;;;;;;;;;;;;;;;;;4971200;28;19918;-76
2021/06/26 06:03:16;;;;;;;;;;;;;;;;;;4969000;28;19914;-78
2021/06/26 06:05:42;;;;;;;;;;;;;;;;;;4981579;28;19910;-77
2021/06/26 06:08:08;;;;;;;;;;;;;;;;;;4973160;28;19916;-77
2021/06/26 06:10:34;;;;;;;;;;;;;;;;;;4971380;28;19910;-78
2021/06/26 06:13:00;;;;;;;;;;;;;;;;;;4960827;28;19921;-76
2021/06/26 06:15:25;;;;;;;;;;;;;;;;;;4971928;28;20000;-77
2021/06/26 06:17:51;;;;;;;;;;;;;;;;;;4972102;28;20630;-78
2021/06/26 06:20:17;;;;;;;;;;;;;;;;;;4976972;28;19953;-78
2021/06/26 06:22:43;;;;;;;;;;;;;;;;;;4981519;28;19920;-77
2021/06/26 06:25:10;;;;;;;;;;;;;;;;;;4965807;28;19914;-78
2021/06/26 06:27:36;;;;;;;;;;;;;;;;;;4971993;28;20401;-77
2021/06/26 06:30:02;;;;;;;;;;;;;;;;;;4973691;28;19997;-77
2021/06/26 06:32:28;;;;;;;;;;;;;;;;;;4970040;28;19914;-77
2021/06/26 06:34:54;;;;;;;;;;;;;;;;;;4971956;28;19966;-77
2021/06/26 06:37:20;;;;;;;;;;;;;;;;;;4971772;28;20305;-77
2021/06/26 06:39:48;;;;;;;;;;;;;;;;;;4971517;28;19925;-78
2021/06/26 06:42:13;;;;;;;;;;;;;;;;;;4963000;28;19958;-77
2021/06/26 06:44:39;;;;;;;;;;;;;;;;;;4958115;28;19964;-78
2021/06/26 06:47:05;;;;;;;;;;;;;;;;;;4965794;28;20523;-78
2021/06/26 06:49:31;;;;;;;;;;;;;;;;;;4964540;28;19910;-78
2021/06/26 06:51:57;;;;;;;;;;;;;;;;;;4966199;28;19928;-78
2021/06/26 06:54:23;;;;;;;;;;;;;;;;;;4964813;28;19910;-78
2021/06/26 06:56:49;;;;;;;;;;;;;;;;;;4964501;28;19965;-77
2021/06/26 06:59:15;;;;;;;;;;;;;;;;;;4969839;28;19914;-77
2021/06/26 07:01:41;;;;;;;;;;;;;;;;;;4969644;28;19949;-78
2021/06/26 07:04:10;;;;;;;;;;;;;;;;;;4972658;28;19957;-78
2021/06/26 07:06:35;;;;;;;;;;;;;;;;;;4969351;28;19952;-77
2021/06/26 07:09:01;;;;;;;;;;;;;;;;;;4966819;28;20330;-77
2021/06/26 07:11:27;;;;;;;;;;;;;;;;;;4980028;28;19914;-78
2021/06/26 07:13:53;;;;;;;;;;;;;;;;;;4969283;28;19918;-77
2021/06/26 07:16:19;;;;;;;;;;;;;;;;;;4961649;28;19989;-77
2021/06/26 07:18:45;;;;;;;;;;;;;;;;;;4964993;28;19918;-77
2021/06/26 07:21:11;;;;;;;;;;;;;;;;;;4964015;28;19914;-77
2021/06/26 07:23:37;;;;;;;;;;;;;;;;;;4965125;28;19917;-77
2021/06/26 07:26:03;;;;;;;;;;;;;;;;;;4963690;28;19968;-77
2021/06/26 07:28:28;;;;;;;;;;;;;;;;;;4970855;28;19910;-77
2021/06/26 07:30:54;;;;;;;;;;;;;;;;;;4965687;28;19917;-76
2021/06/26 07:33:20;;;;;;;;;;;;;;;;;;4967891;28;19937;-76
2021/06/26 07:35:46;;;;;;;;;;;;;;;;;;4971985;28;20289;-78
2021/06/26 07:38:12;;;;;;;;;;;;;;;;;;4961887;28;19912;-77
2021/06/26 07:40:38;;;;;;;;;;;;;;;;;;4971160;28;19924;-77
2021/06/26 07:43:04;;;;;;;;;;;;;;;;;;4968942;28;19914;-77
2021/06/26 07:45:30;;;;;;;;;;;;;;;;;;4975680;28;20424;-76
2021/06/26 07:47:55;;;;;;;;;;;;;;;;;;4975478;28;19988;-77
2021/06/26 07:50:21;;;;;;;;;;;;;;;;;;4969971;28;19918;-76
2021/06/26 07:52:47;;;;;;;;;;;;;;;;;;4962722;28;19914;-76
2021/06/26 07:55:13;;;;;;;;;;;;;;;;;;4970000;28;19910;-77
2021/06/26 07:57:39;;;;;;;;;;;;;;;;;;4970165;28;19917;-77
2021/06/26 08:00:05;;;;;;;;;;;;;;;;;;4967963;28;19914;-75
2021/06/26 08:02:34;;;;;;;;;;;;;;;;;;4962105;28;19992;-76
2021/06/26 08:05:00;;;;;;;;;;;;;;;;;;4963448;28;19969;-76
2021/06/26 08:07:25;;;;;;;;;;;;;;;;;;4958699;28;19915;-76
2021/06/26 08:09:51;;;;;;;;;;;;;;;;;;4984928;28;20283;-77
2021/06/26 08:12:18;;;;;;;;;;;;;;;;;;4964837;28;19914;-78
2021/06/26 08:14:43;;;;;;;;;;;;;;;;;;4958935;28;19933;-77
2021/06/26 08:17:10;;;;;;;;;;;;;;;;;;4963976;28;19910;-78
2021/06/26 08:19:35;;;;;;;;;;;;;;;;;;4967228;28;19941;-78
2021/06/26 08:22:01;;;;;;;;;;;;;;;;;;4966628;28;19910;-78
2021/06/26 08:24:27;;;;;;;;;;;;;;;;;;4966455;28;19936;-78
2021/06/26 08:26:53;;;;;;;;;;;;;;;;;;4968390;28;19910;-78
2021/06/26 08:29:19;;;;;;;;;;;;;;;;;;4966313;28;19965;-77
2021/06/26 08:31:45;;;;;;;;;;;;;;;;;;4968654;28;19910;-78
2021/06/26 08:34:11;;;;;;;;;;;;;;;;;;4967595;28;19921;-78
2021/06/26 08:36:37;;;;;;;;;;;;;;;;;;4958352;28;19958;-78
2021/06/26 08:39:02;;;;;;;;;;;;;;;;;;4974045;28;19910;-78
2021/06/26 08:41:28;;;;;;;;;;;;;;;;;;4967583;28;19945;-77
2021/06/26 08:43:57;;;;;;;;;;;;;;;;;;4960247;28;19929;-78
2021/06/26 08:46:23;;;;;;;;;;;;;;;;;;4969078;28;20293;-79
2021/06/26 08:48:49;;;;;;;;;;;;;;;;;;4965109;28;19923;-77
2021/06/26 08:51:15;;;;;;;;;;;;;;;;;;4965565;28;20577;-77
2021/06/26 08:53:41;;;;;;;;;;;;;;;;;;4972430;28;19910;-78
2021/06/26 08:56:08;;;;;;;;;;;;;;;;;;4967001;28;19922;-77
2021/06/26 08:58:34;;;;;;;;;;;;;;;;;;4970590;28;19921;-79
2021/06/26 09:01:00;;;;;;;;;;;;;;;;;;4974580;28;20535;-78
2021/06/26 09:03:26;;;;;;;;;;;;;;;;;;4970591;28;19925;-81
2021/06/26 09:05:51;;;;;;;;;;;;;;;;;;4961238;28;19914;-79
2021/06/26 09:08:20;;;;;;;;;;;;;;;;;;4972056;28;20338;-79
2021/06/26 09:10:46;;;;;;;;;;;;;;;;;;4983693;28;19910;-77
2021/06/26 09:13:12;;;;;;;;;;;;;;;;;;4967969;28;20358;-79
2021/06/26 09:15:38;;;;;;;;;;;;;;;;;;4987258;28;19917;-78
2021/06/26 09:18:04;;;;;;;;;;;;;;;;;;4968456;28;19910;-80
2021/06/26 09:20:30;;;;;;;;;;;;;;;;;;4971829;28;19993;-79
2021/06/26 09:22:56;;;;;;;;;;;;;;;;;;4971592;28;20247;-77
2021/06/26 09:25:22;;;;;;;;;;;;;;;;;;4971235;28;19914;-76
2021/06/26 09:27:48;;;;;;;;;;;;;;;;;;4969254;28;20277;-77
2021/06/26 09:30:14;;;;;;;;;;;;;;;;;;4969215;28;19910;-78
2021/06/26 09:32:40;;;;;;;;;;;;;;;;;;4969862;28;19917;-80
2021/06/26 09:35:05;;;;;;;;;;;;;;;;;;4970814;28;20270;-79
2021/06/26 09:37:31;;;;;;;;;;;;;;;;;;4984105;28;19910;-77
2021/06/26 09:39:58;;;;;;;;;;;;;;;;;;4984780;28;19925;-80
2021/06/26 09:42:24;;;;;;;;;;;;;;;;;;4971841;28;19910;-79
2021/06/26 09:44:50;;;;;;;;;;;;;;;;;;4969466;28;20057;-79
2021/06/26 09:47:17;;;;;;;;;;;;;;;;;;4960958;28;19910;-76
2021/06/26 09:49:43;;;;;;;;;;;;;;;;;;4969578;28;20372;-76
2021/06/26 09:52:10;;;;;;;;;;;;;;;;;;4972257;28;19914;-78
2021/06/26 09:54:36;;;;;;;;;;;;;;;;;;4972408;28;19924;-77
2021/06/26 09:57:03;;;;;;;;;;;;;;;;;;4962136;28;20261;-77
2021/06/26 09:59:29;;;;;;;;;;;;;;;;;;4976664;28;19968;-75
2021/06/26 10:01:55;;;;;;;;;;;;;;;;;;4972392;28;19942;-77
2021/06/26 10:04:21;;;;;;;;;;;;;;;;;;4972158;28;19957;-80
2021/06/26 10:06:47;;;;;;;;;;;;;;;;;;4960539;28;19910;-78
2021/06/26 10:09:16;;;;;;;;;;;;;;;;;;4964950;28;20342;-76
2021/06/26 10:11:42;;;;;;;;;;;;;;;;;;4960997;28;19921;-77
2021/06/26 10:14:07;;;;;;;;;;;;;;;;;;4969406;28;20265;-77
2021/06/26 10:16:33;;;;;;;;;;;;;;;;;;4971536;28;19913;-78
2021/06/26 10:19:00;;;;;;;;;;;;;;;;;;4970758;28;20017;-76
2021/06/26 10:21:26;;;;;;;;;;;;;;;;;;4981544;28;20002;-76
2021/06/26 10:23:52;;;;;;;;;;;;;;;;;;4985962;28;19937;-81
2021/06/26 10:26:18;;;;;;;;;;;;;;;;;;4969347;28;19981;-80
2021/06/26 10:28:44;;;;;;;;;;;;;;;;;;4988059;28;19998;-77
2021/06/26 10:31:14;;;;;;;;;;;;;;;;;;4960865;28;19906;-77
2021/06/26 10:33:41;;;;;;;;;;;;;;;;;;4971985;28;19918;-77
2021/06/26 10:36:07;;;;;;;;;;;;;;;;;;4961575;28;19964;-78
2021/06/26 10:38:32;;;;;;;;;;;;;;;;;;4972470;28;19914;-77
2021/06/26 10:40:58;;;;;;;;;;;;;;;;;;4970832;28;19992;-77
2021/06/26 10:43:24;;;;;;;;;;;;;;;;;;4970675;28;19914;-77
2021/06/26 10:45:50;;;;;;;;;;;;;;;;;;4974388;28;19934;-75
2021/06/26 10:48:17;;;;;;;;;;;;;;;;;;4972107;28;19949;-78
2021/06/26 10:50:42;;;;;;;;;;;;;;;;;;4968709;28;20412;-75
2021/06/26 10:53:08;;;;;;;;;;;;;;;;;;4970149;28;19913;-78
2021/06/26 10:55:38;;;;;;;;;;;;;;;;;;4979130;28;20243;-79
2021/06/26 10:58:04;;;;;;;;;;;;;;;;;;4970431;28;19910;-79
2021/06/26 11:00:29;;;;;;;;;;;;;;;;;;4970074;28;20365;-77
2021/06/26 11:02:55;;;;;;;;;;;;;;;;;;4966097;28;19921;-77
2021/06/26 11:05:21;;;;;;;;;;;;;;;;;;4974956;28;19936;-78
2021/06/26 11:07:50;;;;;;;;;;;;;;;;;;4969299;28;19917;-79
2021/06/26 11:10:16;;;;;;;;;;;;;;;;;;4969149;28;20389;-77
2021/06/26 11:12:44;;;;;;;;;;;;;;;;;;4966431;28;19945;-76
2021/06/26 11:15:10;;;;;;;;;;;;;;;;;;4963158;28;19920;-78
2021/06/26 11:17:36;;;;;;;;;;;;;;;;;;4970038;28;19922;-78
2021/06/26 11:20:03;;;;;;;;;;;;;;;;;;4981137;28;19910;-79
2021/06/26 11:22:29;;;;;;;;;;;;;;;;;;4969230;28;20266;-79
2021/06/26 11:24:55;;;;;;;;;;;;;;;;;;4969848;28;19954;-78
2021/06/26 11:27:21;;;;;;;;;;;;;;;;;;4966942;28;19911;-81
2021/06/26 11:29:47;;;;;;;;;;;;;;;;;;4971529;28;19913;-80
2021/06/26 11:32:13;;;;;;;;;;;;;;;;;;4968844;28;19914;-80
2021/06/26 11:34:39;;;;;;;;;;;;;;;;;;4967370;28;20358;-81
2021/06/26 11:37:04;;;;;;;;;;;;;;;;;;4965955;28;19925;-81
2021/06/26 11:39:30;;;;;;;;;;;;;;;;;;4966430;28;19910;-81
2021/06/26 11:41:58;;;;;;;;;;;;;;;;;;4964417;28;19910;-79
2021/06/26 11:44:23;;;;;;;;;;;;;;;;;;4962703;28;20012;-80
2021/06/26 11:46:49;;;;;;;;;;;;;;;;;;4962702;28;20005;-79
2021/06/26 11:49:15;;;;;;;;;;;;;;;;;;4970425;28;19921;-78
2021/06/26 11:51:41;;;;;;;;;;;;;;;;;;4967484;28;20412;-82
2021/06/26 11:54:16;;;;;;;;;;;;;;;;;;4966006;28;20000;-83
2021/06/26 11:56:42;;;;;;;;;;;;;;;;;;4966285;28;19911;-81
2021/06/26 11:59:08;;;;;;;;;;;;;;;;;;4967820;28;19932;-82
2021/06/26 12:01:36;;;;;;;;;;;;;;;;;;4970689;28;19910;-82
2021/06/26 12:04:02;;;;;;;;;;;;;;;;;;4963843;28;19910;-82
2021/06/26 12:06:28;;;;;;;;;;;;;;;;;;4975481;28;19910;-78
2021/06/26 12:08:54;;;;;;;;;;;;;;;;;;4961137;28;20680;-82
2021/06/26 12:11:20;;;;;;;;;;;;;;;;;;4971179;28;20290;-79
2021/06/26 12:13:46;;;;;;;;;;;;;;;;;;4970513;28;19929;-80
2021/06/26 12:16:12;;;;;;;;;;;;;;;;;;4963903;28;19914;-79
2021/06/26 12:18:38;;;;;;;;;;;;;;;;;;4964735;28;19989;-81
2021/06/26 12:21:03;;;;;;;;;;;;;;;;;;4964926;28;20562;-82
2021/06/26 12:23:32;;;;;;;;;;;;;;;;;;4964465;28;19938;-82
2021/06/26 12:25:58;;;;;;;;;;;;;;;;;;4991100;28;20370;-80
2021/06/26 12:28:24;;;;;;;;;;;;;;;;;;4977672;28;19913;-79
2021/06/26 12:30:50;;;;;;;;;;;;;;;;;;4972614;28;19938;-80
2021/06/26 12:33:16;;;;;;;;;;;;;;;;;;4991016;28;19949;-81
2021/06/26 12:35:42;;;;;;;;;;;;;;;;;;4970748;28;19912;-78
2021/06/26 12:38:08;;;;;;;;;;;;;;;;;;4987796;28;19906;-81
2021/06/26 12:40:34;;;;;;;;;;;;;;;;;;4977207;28;20277;-80
2021/06/26 12:43:10;;;;;;;;;;;;;;;;;;4988117;28;19968;-79
2021/06/26 12:45:35;;;;;;;;;;;;;;;;;;4969574;28;19953;-81
2021/06/26 12:48:04;;;;;;;;;;;;;;;;;;4972432;28;19938;-81
2021/06/26 12:50:33;;;;;;;;;;;;;;;;;;4983054;28;19906;-79
2021/06/26 12:52:59;;;;;;;;;;;;;;;;;;4976303;28;19914;-78
2021/06/26 12:55:27;;;;;;;;;;;;;;;;;;4970840;28;19961;-80
2021/06/26 12:57:52;;;;;;;;;;;;;;;;;;4975496;28;19917;-80
2021/06/26 13:00:18;;;;;;;;;;;;;;;;;;4971087;28;19933;-80
2021/06/26 13:02:44;;;;;;;;;;;;;;;;;;4973250;28;19957;-81
2021/06/26 13:05:10;;;;;;;;;;;;;;;;;;4970945;28;19914;-79
2021/06/26 13:07:48;;;;;;;;;;;;;;;;;;4988225;28;19918;-80
2021/06/26 13:10:14;;;;;;;;;;;;;;;;;;4960880;28;19986;-80
2021/06/26 13:12:40;;;;;;;;;;;;;;;;;;4974445;28;20383;-81
2021/06/26 13:15:06;;;;;;;;;;;;;;;;;;4965418;28;19922;-80
2021/06/26 13:17:32;;;;;;;;;;;;;;;;;;4971635;28;20548;-82
2021/06/26 13:20:09;;;;;;;;;;;;;;;;;;4975717;28;19906;-79
2021/06/26 13:22:35;;;;;;;;;;;;;;;;;;4976373;28;19910;-80
2021/06/26 13:25:04;;;;;;;;;;;;;;;;;;4976232;28;20265;-80
2021/06/26 13:27:30;;;;;;;;;;;;;;;;;;4964353;28;20409;-79
2021/06/26 13:29:56;;;;;;;;;;;;;;;;;;4962350;28;19910;-80
2021/06/26 13:32:25;;;;;;;;;;;;;;;;;;4983297;28;19910;-80
2021/06/26 13:34:51;;;;;;;;;;;;;;;;;;4973183;28;19914;-82
2021/06/26 13:37:18;;;;;;;;;;;;;;;;;;4972616;28;20343;-81
2021/06/26 13:39:44;;;;;;;;;;;;;;;;;;4971256;28;19980;-81
2021/06/26 13:42:10;;;;;;;;;;;;;;;;;;4980254;28;19909;-81
2021/06/26 13:44:37;;;;;;;;;;;;;;;;;;4969608;28;19953;-78
2021/06/26 13:47:03;;;;;;;;;;;;;;;;;;4969891;28;19914;-77
2021/06/26 13:49:31;;;;;;;;;;;;;;;;;;4971009;28;20017;-77
2021/06/26 13:51:57;;;;;;;;;;;;;;;;;;4966455;28;20377;-76
2021/06/26 13:54:23;;;;;;;;;;;;;;;;;;4970390;28;19910;-77
2021/06/26 13:56:49;;;;;;;;;;;;;;;;;;4963052;28;19911;-77
2021/06/26 13:59:14;;;;;;;;;;;;;;;;;;4961545;28;19913;-76
2021/06/26 14:01:40;;;;;;;;;;;;;;;;;;4970502;28;19916;-76
2021/06/26 14:04:06;;;;;;;;;;;;;;;;;;4969173;28;19914;-77
2021/06/26 14:06:32;;;;;;;;;;;;;;;;;;4971793;28;20470;-76
2021/06/26 14:08:58;;;;;;;;;;;;;;;;;;4968725;28;20004;-76
2021/06/26 14:11:24;;;;;;;;;;;;;;;;;;4965677;28;19946;-77
2021/06/26 14:13:50;;;;;;;;;;;;;;;;;;4970250;28;19922;-75
2021/06/26 14:16:16;;;;;;;;;;;;;;;;;;4984062;28;20008;-75
2021/06/26 14:18:41;;;;;;;;;;;;;;;;;;4961495;28;19914;-74
2021/06/26 14:21:07;;;;;;;;;;;;;;;;;;4963427;28;19910;-75
2021/06/26 14:23:33;;;;;;;;;;;;;;;;;;4962699;28;19914;-76
2021/06/26 14:25:59;;;;;;;;;;;;;;;;;;4966813;28;19918;-84
2021/06/26 14:28:25;;;;;;;;;;;;;;;;;;4969557;28;19925;-76
2021/06/26 14:30:51;;;;;;;;;;;;;;;;;;4971066;28;19938;-75
2021/06/26 14:33:17;;;;;;;;;;;;;;;;;;4969911;28;20410;-77
2021/06/26 14:35:43;;;;;;;;;;;;;;;;;;4970254;28;20004;-75
2021/06/26 14:38:10;;;;;;;;;;;;;;;;;;4968936;28;19914;-74
2021/06/26 14:40:36;;;;;;;;;;;;;;;;;;4971466;28;20006;-76
2021/06/26 14:43:02;;;;;;;;;;;;;;;;;;4960165;28;20005;-76
2021/06/26 14:45:28;;;;;;;;;;;;;;;;;;4966611;28;19910;-77
2021/06/26 14:47:53;;;;;;;;;;;;;;;;;;4966012;28;19936;-76
2021/06/26 14:50:19;;;;;;;;;;;;;;;;;;4971511;28;20001;-75
2021/06/26 14:52:45;;;;;;;;;;;;;;;;;;4963774;28;21730;-73
2021/06/26 14:55:11;;;;;;;;;;;;;;;;;;4958344;28;19914;-75
2021/06/26 14:57:37;;;;;;;;;;;;;;;;;;4963219;28;19957;-76
2021/06/26 15:00:03;;;;;;;;;;;;;;;;;;4967860;28;19945;-75
2021/06/26 15:02:29;;;;;;;;;;;;;;;;;;4969197;28;19914;-78
2021/06/26 15:05:01;;;;;;;;;;;;;;;;;;4970537;28;20005;-78
2021/06/26 15:07:27;;;;;;;;;;;;;;;;;;4965507;28;19910;-78
2021/06/26 15:09:53;;;;;;;;;;;;;;;;;;4980182;28;19910;-82
2021/06/26 15:12:19;;;;;;;;;;;;;;;;;;4974303;28;19917;-78
2021/06/26 15:14:44;;;;;;;;;;;;;;;;;;4967452;28;19925;-78
2021/06/26 15:17:15;;;;;;;;;;;;;;;;;;4965437;28;19918;-78
2021/06/26 15:19:41;;;;;;;;;;;;;;;;;;4971962;28;19945;-77
2021/06/26 15:22:07;;;;;;;;;;;;;;;;;;4972564;28;19996;-78
2021/06/26 15:24:33;;;;;;;;;;;;;;;;;;4963956;28;19918;-77
2021/06/26 15:26:59;;;;;;;;;;;;;;;;;;4972061;28;19910;-77
2021/06/26 15:29:24;;;;;;;;;;;;;;;;;;4971091;28;20009;-78
2021/06/26 15:31:53;;;;;;;;;;;;;;;;;;4968819;28;19914;-78
2021/06/26 15:34:19;;;;;;;;;;;;;;;;;;4965662;28;19917;-78
2021/06/26 15:36:45;;;;;;;;;;;;;;;;;;4971568;28;19910;-78
2021/06/26 15:39:11;;;;;;;;;;;;;;;;;;4970174;28;19942;-78
2021/06/26 15:41:37;;;;;;;;;;;;;;;;;;4972406;28;19906;-78
2021/06/26 15:44:03;;;;;;;;;;;;;;;;;;5011218;23;20118;-78
2021/06/26 15:46:29;;;;;;;;;;;;;;;;;;5013044;28;20221;-81
2021/06/26 15:48:55;;;;;;;;;;;;;;;;;;5023784;28;19914;-78
2021/06/26 15:51:20;;;;;;;;;;;;;;;;;;5025805;28;19909;-77
2021/06/26 15:53:46;;;;;;;;;;;;;;;;;;5016305;28;19913;-79
2021/06/26 15:56:12;;;;;;;;;;;;;;;;;;5029606;28;19982;-79
2021/06/26 15:58:38;;;;;;;;;;;;;;;;;;5024962;28;20289;-78
2021/06/26 16:01:04;;;;;;;;;;;;;;;;;;5020505;28;19913;-78
2021/06/26 16:03:30;;;;;;;;;;;;;;;;;;5028392;28;19914;-80
2021/06/26 16:05:56;;;;;;;;;;;;;;;;;;5023566;28;19967;-78
2021/06/26 16:08:22;;;;;;;;;;;;;;;;;;5017917;28;19920;-79
2021/06/26 16:10:48;;;;;;;;;;;;;;;;;;5024986;28;19918;-80
2021/06/26 16:13:14;;;;;;;;;;;;;;;;;;5031535;28;19912;-79
2021/06/26 16:15:40;;;;;;;;;;;;;;;;;;5028913;28;20228;-77
2021/06/26 16:18:06;;;;;;;;;;;;;;;;;;5029374;28;20510;-79
2021/06/26 16:20:31;;;;;;;;;;;;;;;;;;5026833;28;19917;-79
2021/06/26 16:22:57;;;;;;;;;;;;;;;;;;5023249;28;19925;-80
2021/06/26 16:25:23;;;;;;;;;;;;;;;;;;5019362;28;19916;-77
2021/06/26 16:27:49;;;;;;;;;;;;;;;;;;5032366;28;19908;-80
2021/06/26 16:30:15;;;;;;;;;;;;;;;;;;5025975;28;20369;-81
2021/06/26 16:32:41;;;;;;;;;;;;;;;;;;5019333;28;19910;-80
2021/06/26 16:35:07;;;;;;;;;;;;;;;;;;5021087;28;19920;-78
2021/06/26 16:37:39;;;;;;;;;;;;;;;;;;5030216;28;19977;-80